Terminal Aerodrome Forecast
Issued by NWS

Home | Current Version | Previous Version | Text Only | Print | Product List | Glossary On
Versions: 1 2 3 4 5 6 7 8 9 10 11 12 13 14 15
000
FTUS45 KABQ 202300
TAFSAF
TAF
KSAF 202323Z 2100/2124 29008KT P6SM FEW250
     FM210300 33005KT P6SM BKN200
      TEMPO 2110/2114 35010KT
     FM212000 31010G18KT P6SM SCT060 BKN150=

USA.gov is the U.S. government's official web portal to all federal, state and local government web resources and services.